sensor_id;sensor_type;location;lat;lon;timestamp;noise_LAeq;noise_LA_min;noise_LA_max;noise_LA01;noise_LA95
60116;Laerm;62818;49.394;8.686;2023-07-20T00:00:50;64.81;39.46;76.91;;
60116;Laerm;62818;49.394;8.686;2023-07-20T00:01:53;66.28;40.33;76.69;;
60116;Laerm;62818;49.394;8.686;2023-07-20T00:03:13;64.50;40.03;77.30;;
60116;Laerm;62818;49.394;8.686;2023-07-20T00:04:16;67.03;39.34;75.47;;
60116;Laerm;62818;49.394;8.686;2023-07-20T00:05:17;66.81;40.71;74.66;;
60116;Laerm;62818;49.394;8.686;2023-07-20T00:06:25;67.03;39.08;74.51;;
60116;Laerm;62818;49.394;8.686;2023-07-20T00:07:27;67.59;40.13;75.28;;
60116;Laerm;62818;49.394;8.686;2023-07-20T00:08:29;66.95;40.71;75.68;;
60116;Laerm;62818;49.394;8.686;2023-07-20T00:09:29;67.33;39.46;75.61;;
60116;Laerm;62818;49.394;8.686;2023-07-20T00:10:30;66.63;40.23;77.11;;
60116;Laerm;62818;49.394;8.686;2023-07-20T00:11:30;65.58;39.08;76.84;;
60116;Laerm;62818;49.394;8.686;2023-07-20T00:12:30;65.91;39.34;77.13;;
60116;Laerm;62818;49.394;8.686;2023-07-20T00:13:31;64.21;39.70;76.47;;
60116;Laerm;62818;49.394;8.686;2023-07-20T00:14:31;64.49;40.53;75.74;;
60116;Laerm;62818;49.394;8.686;2023-07-20T00:15:32;64.86;39.81;76.76;;
60116;Laerm;62818;49.394;8.686;2023-07-20T00:16:33;65.97;39.92;77.13;;
60116;Laerm;62818;49.394;8.686;2023-07-20T00:17:33;65.76;40.13;76.89;;
60116;Laerm;62818;49.394;8.686;2023-07-20T00:18:34;65.32;40.13;77.56;;
60116;Laerm;62818;49.394;8.686;2023-07-20T00:19:34;63.68;40.03;75.84;;
60116;Laerm;62818;49.394;8.686;2023-07-20T00:20:35;64.33;39.46;76.54;;
60116;Laerm;62818;49.394;8.686;2023-07-20T00:21:36;65.89;40.53;77.01;;
60116;Laerm;62818;49.394;8.686;2023-07-20T00:22:37;64.50;40.89;76.06;;
60116;Laerm;62818;49.394;8.686;2023-07-20T00:23:38;65.47;40.03;77.54;;
60116;Laerm;62818;49.394;8.686;2023-07-20T00:24:38;65.71;40.03;76.97;;
60116;Laerm;62818;49.394;8.686;2023-07-20T00:25:39;65.00;39.46;76.64;;
60116;Laerm;62818;49.394;8.686;2023-07-20T00:26:39;65.47;40.03;77.20;;
60116;Laerm;62818;49.394;8.686;2023-07-20T00:27:40;65.62;40.43;77.18;;
60116;Laerm;62818;49.394;8.686;2023-07-20T00:28:40;66.21;39.81;77.13;;
60116;Laerm;62818;49.394;8.686;2023-07-20T00:29:41;67.02;40.03;76.14;;
60116;Laerm;62818;49.394;8.686;2023-07-20T00:30:41;67.58;39.34;76.15;;
60116;Laerm;62818;49.394;8.686;2023-07-20T00:31:42;66.66;40.13;75.14;;
60116;Laerm;62818;49.394;8.686;2023-07-20T00:32:44;67.14;39.08;77.24;;
60116;Laerm;62818;49.394;8.686;2023-07-20T00:33:45;45.31;39.46;62.76;;
60116;Laerm;62818;49.394;8.686;2023-07-20T00:34:46;65.28;42.03;73.85;;
60116;Laerm;62818;49.394;8.686;2023-07-20T00:35:46;65.11;39.08;72.52;;
60116;Laerm;62818;49.394;8.686;2023-07-20T00:36:47;65.85;39.81;73.42;;
60116;Laerm;62818;49.394;8.686;2023-07-20T00:37:49;65.59;41.14;73.00;;
60116;Laerm;62818;49.394;8.686;2023-07-20T00:38:49;65.05;42.16;72.55;;
60116;Laerm;62818;49.394;8.686;2023-07-20T00:39:51;66.62;41.46;76.02;;
60116;Laerm;62818;49.394;8.686;2023-07-20T00:40:51;65.14;39.81;73.51;;
60116;Laerm;62818;49.394;8.686;2023-07-20T00:41:52;64.84;39.92;72.35;;
60116;Laerm;62818;49.394;8.686;2023-07-20T00:42:52;65.21;39.46;72.86;;
60116;Laerm;62818;49.394;8.686;2023-07-20T00:43:53;65.23;39.46;72.87;;
60116;Laerm;62818;49.394;8.686;2023-07-20T00:44:54;65.28;38.81;73.18;;
60116;Laerm;62818;49.394;8.686;2023-07-20T00:45:55;65.64;39.21;73.35;;
60116;Laerm;62818;49.394;8.686;2023-07-20T00:46:56;42.76;38.81;58.00;;
60116;Laerm;62818;49.394;8.686;2023-07-20T00:47:57;65.37;40.23;76.50;;
60116;Laerm;62818;49.394;8.686;2023-07-20T00:48:58;66.47;38.95;77.56;;
60116;Laerm;62818;49.394;8.686;2023-07-20T00:49:59;66.37;39.58;76.71;;
60116;Laerm;62818;49.394;8.686;2023-07-20T00:51:01;66.08;38.52;76.64;;
60116;Laerm;62818;49.394;8.686;2023-07-20T00:52:06;66.90;39.34;76.99;;
60116;Laerm;62818;49.394;8.686;2023-07-20T00:53:07;67.35;40.62;76.35;;
60116;Laerm;62818;49.394;8.686;2023-07-20T00:54:08;67.70;39.34;76.89;;
60116;Laerm;62818;49.394;8.686;2023-07-20T00:55:09;65.14;39.08;74.11;;
60116;Laerm;62818;49.394;8.686;2023-07-20T00:56:10;64.88;39.81;72.39;;
60116;Laerm;62818;49.394;8.686;2023-07-20T00:57:14;49.46;38.95;69.56;;
60116;Laerm;62818;49.394;8.686;2023-07-20T00:58:14;65.60;39.89;72.86;;
60116;Laerm;62818;49.394;8.686;2023-07-20T00:59:15;65.40;39.08;72.94;;
60116;Laerm;62818;49.394;8.686;2023-07-20T01:00:16;65.40;39.34;73.23;;
60116;Laerm;62818;49.394;8.686;2023-07-20T01:01:17;65.13;39.92;72.62;;
60116;Laerm;62818;49.394;8.686;2023-07-20T01:02:17;66.78;39.46;74.94;;
60116;Laerm;62818;49.394;8.686;2023-07-20T01:03:18;66.61;40.13;75.55;;
60116;Laerm;62818;49.394;8.686;2023-07-20T01:04:19;66.70;38.81;75.59;;
60116;Laerm;62818;49.394;8.686;2023-07-20T01:05:23;67.05;41.22;74.91;;
60116;Laerm;62818;49.394;8.686;2023-07-20T01:07:57;64.62;39.58;72.35;;
60116;Laerm;62818;49.394;8.686;2023-07-20T01:09:11;64.71;40.33;76.78;;
60116;Laerm;62818;49.394;8.686;2023-07-20T01:10:29;65.85;41.61;76.67;;
60116;Laerm;62818;49.394;8.686;2023-07-20T01:11:43;66.18;42.53;75.29;;
60116;Laerm;62818;49.394;8.686;2023-07-20T01:12:52;65.03;40.89;73.12;;
60116;Laerm;62818;49.394;8.686;2023-07-20T01:13:53;65.80;40.03;76.25;;
60116;Laerm;62818;49.394;8.686;2023-07-20T01:14:54;64.39;39.92;76.20;;
60116;Laerm;62818;49.394;8.686;2023-07-20T01:16:01;66.19;39.46;75.82;;
60116;Laerm;62818;49.394;8.686;2023-07-20T01:17:03;65.15;39.46;76.78;;
60116;Laerm;62818;49.394;8.686;2023-07-20T01:18:03;66.38;38.95;76.40;;
60116;Laerm;62818;49.394;8.686;2023-07-20T01:20:08;65.17;39.34;76.60;;
60116;Laerm;62818;49.394;8.686;2023-07-20T01:21:22;64.31;39.70;77.18;;
60116;Laerm;62818;49.394;8.686;2023-07-20T01:24:39;64.14;39.70;77.12;;
60116;Laerm;62818;49.394;8.686;2023-07-20T01:29:30;64.64;38.95;72.93;;
60116;Laerm;62818;49.394;8.686;2023-07-20T01:31:37;64.89;40.23;73.61;;
60116;Laerm;62818;49.394;8.686;2023-07-20T01:32:42;65.33;40.43;72.46;;
60116;Laerm;62818;49.394;8.686;2023-07-20T01:33:44;65.67;40.43;73.07;;
60116;Laerm;62818;49.394;8.686;2023-07-20T01:34:49;65.47;41.30;72.75;;
60116;Laerm;62818;49.394;8.686;2023-07-20T01:35:58;65.24;39.70;72.86;;
60116;Laerm;62818;49.394;8.686;2023-07-20T01:37:01;65.67;39.21;72.70;;
60116;Laerm;62818;49.394;8.686;2023-07-20T01:38:04;65.69;40.03;72.97;;
60116;Laerm;62818;49.394;8.686;2023-07-20T01:39:06;65.91;43.09;73.01;;
60116;Laerm;62818;49.394;8.686;2023-07-20T01:40:15;65.32;44.11;72.91;;
60116;Laerm;62818;49.394;8.686;2023-07-20T01:41:16;65.73;43.99;73.16;;
60116;Laerm;62818;49.394;8.686;2023-07-20T01:42:18;65.72;43.72;72.89;;
60116;Laerm;62818;49.394;8.686;2023-07-20T01:43:18;65.66;43.51;73.03;;
60116;Laerm;62818;49.394;8.686;2023-07-20T01:44:19;65.41;43.09;73.42;;
60116;Laerm;62818;49.394;8.686;2023-07-20T01:45:20;65.57;42.98;72.88;;
60116;Laerm;62818;49.394;8.686;2023-07-20T01:46:20;65.33;43.44;73.11;;
60116;Laerm;62818;49.394;8.686;2023-07-20T01:47:20;65.33;44.23;72.69;;
60116;Laerm;62818;49.394;8.686;2023-07-20T01:48:21;65.42;43.72;72.88;;
60116;Laerm;62818;49.394;8.686;2023-07-20T01:49:21;67.37;43.58;75.58;;
60116;Laerm;62818;49.394;8.686;2023-07-20T01:50:22;64.92;43.39;73.87;;
60116;Laerm;62818;49.394;8.686;2023-07-20T01:51:22;66.46;43.63;77.04;;
60116;Laerm;62818;49.394;8.686;2023-07-20T01:52:23;66.92;43.68;74.70;;
60116;Laerm;62818;49.394;8.686;2023-07-20T01:53:24;65.29;43.72;76.14;;
60116;Laerm;62818;49.394;8.686;2023-07-20T01:54:24;64.76;43.44;76.15;;
60116;Laerm;62818;49.394;8.686;2023-07-20T01:55:25;65.36;43.72;76.53;;
60116;Laerm;62818;49.394;8.686;2023-07-20T01:56:25;64.92;43.81;76.77;;
60116;Laerm;62818;49.394;8.686;2023-07-20T01:57:26;65.83;43.81;76.84;;
60116;Laerm;62818;49.394;8.686;2023-07-20T01:58:26;64.78;43.90;76.72;;
60116;Laerm;62818;49.394;8.686;2023-07-20T01:59:27;64.60;43.49;75.18;;
60116;Laerm;62818;49.394;8.686;2023-07-20T02:00:27;65.32;43.86;76.19;;
60116;Laerm;62818;49.394;8.686;2023-07-20T02:01:28;64.44;43.72;76.75;;
60116;Laerm;62818;49.394;8.686;2023-07-20T02:02:29;66.24;43.94;76.41;;
60116;Laerm;62818;49.394;8.686;2023-07-20T02:03:29;66.56;44.51;76.77;;
60116;Laerm;62818;49.394;8.686;2023-07-20T02:04:30;66.40;44.35;76.44;;
60116;Laerm;62818;49.394;8.686;2023-07-20T02:05:30;66.53;44.65;76.48;;
60116;Laerm;62818;49.394;8.686;2023-07-20T02:06:31;67.00;44.51;75.89;;
60116;Laerm;62818;49.394;8.686;2023-07-20T02:07:32;65.00;43.99;72.93;;
60116;Laerm;62818;49.394;8.686;2023-07-20T02:08:33;67.05;43.86;76.10;;
60116;Laerm;62818;49.394;8.686;2023-07-20T02:09:33;65.50;44.27;77.48;;
60116;Laerm;62818;49.394;8.686;2023-07-20T02:10:34;66.16;43.94;76.68;;
60116;Laerm;62818;49.394;8.686;2023-07-20T02:11:34;64.23;40.80;75.67;;
60116;Laerm;62818;49.394;8.686;2023-07-20T02:12:35;64.84;41.38;76.42;;
60116;Laerm;62818;49.394;8.686;2023-07-20T02:13:36;65.07;43.68;76.08;;
60116;Laerm;62818;49.394;8.686;2023-07-20T02:14:36;64.53;42.82;76.74;;
60116;Laerm;62818;49.394;8.686;2023-07-20T02:15:37;64.97;41.22;75.65;;
60116;Laerm;62818;49.394;8.686;2023-07-20T02:16:37;65.03;40.03;76.38;;
60116;Laerm;62818;49.394;8.686;2023-07-20T02:17:37;63.55;41.61;75.27;;
60116;Laerm;62818;49.394;8.686;2023-07-20T02:18:41;65.20;40.03;76.31;;
60116;Laerm;62818;49.394;8.686;2023-07-20T02:19:41;64.69;40.03;76.06;;
60116;Laerm;62818;49.394;8.686;2023-07-20T02:20:42;65.70;42.59;77.37;;
60116;Laerm;62818;49.394;8.686;2023-07-20T02:21:42;65.14;40.13;77.17;;
60116;Laerm;62818;49.394;8.686;2023-07-20T02:22:43;65.72;40.80;76.76;;
60116;Laerm;62818;49.394;8.686;2023-07-20T02:23:43;65.49;40.23;77.07;;
60116;Laerm;62818;49.394;8.686;2023-07-20T02:24:44;65.49;39.46;76.77;;
60116;Laerm;62818;49.394;8.686;2023-07-20T02:25:44;66.05;39.58;74.64;;
60116;Laerm;62818;49.394;8.686;2023-07-20T02:26:45;66.98;40.23;75.29;;
60116;Laerm;62818;49.394;8.686;2023-07-20T02:27:45;67.01;40.03;75.36;;
60116;Laerm;62818;49.394;8.686;2023-07-20T02:28:46;64.92;40.23;72.57;;
60116;Laerm;62818;49.394;8.686;2023-07-20T02:29:46;66.69;40.53;75.56;;
60116;Laerm;62818;49.394;8.686;2023-07-20T02:30:47;64.94;41.30;74.08;;
60116;Laerm;62818;49.394;8.686;2023-07-20T02:31:47;65.21;41.75;72.86;;
60116;Laerm;62818;49.394;8.686;2023-07-20T02:32:48;65.81;43.39;73.27;;
60116;Laerm;62818;49.394;8.686;2023-07-20T02:33:48;66.53;40.13;75.45;;
60116;Laerm;62818;49.394;8.686;2023-07-20T02:34:49;65.02;41.94;72.21;;
60116;Laerm;62818;49.394;8.686;2023-07-20T02:35:49;65.82;41.11;72.98;;
60116;Laerm;62818;49.394;8.686;2023-07-20T02:36:50;65.66;40.71;73.25;;
60116;Laerm;62818;49.394;8.686;2023-07-20T02:37:50;65.23;40.62;72.57;;
60116;Laerm;62818;49.394;8.686;2023-07-20T02:38:51;65.25;41.82;73.74;;
60116;Laerm;62818;49.394;8.686;2023-07-20T02:39:51;65.63;43.24;72.85;;
60116;Laerm;62818;49.394;8.686;2023-07-20T02:40:52;64.74;42.35;72.22;;
60116;Laerm;62818;49.394;8.686;2023-07-20T02:41:52;64.65;41.26;72.32;;
60116;Laerm;62818;49.394;8.686;2023-07-20T02:42:53;65.01;41.89;72.31;;
60116;Laerm;62818;49.394;8.686;2023-07-20T02:43:53;64.91;41.53;72.11;;
60116;Laerm;62818;49.394;8.686;2023-07-20T02:44:53;64.82;41.82;72.12;;
60116;Laerm;62818;49.394;8.686;2023-07-20T02:45:54;65.06;41.89;72.43;;
60116;Laerm;62818;49.394;8.686;2023-07-20T02:46:54;65.03;41.68;72.63;;
60116;Laerm;62818;49.394;8.686;2023-07-20T02:47:55;65.26;41.30;73.04;;
60116;Laerm;62818;49.394;8.686;2023-07-20T02:48:55;65.20;41.89;72.97;;
60116;Laerm;62818;49.394;8.686;2023-07-20T02:49:57;64.92;41.61;72.88;;
60116;Laerm;62818;49.394;8.686;2023-07-20T02:50:57;66.29;41.22;76.21;;
60116;Laerm;62818;49.394;8.686;2023-07-20T02:51:58;64.75;41.30;75.40;;
60116;Laerm;62818;49.394;8.686;2023-07-20T02:52:58;66.19;42.09;75.00;;
60116;Laerm;62818;49.394;8.686;2023-07-20T02:53:59;64.49;42.29;73.09;;
60116;Laerm;62818;49.394;8.686;2023-07-20T02:54:59;64.62;41.38;73.12;;
60116;Laerm;62818;49.394;8.686;2023-07-20T02:56:00;65.00;41.89;72.36;;
60116;Laerm;62818;49.394;8.686;2023-07-20T02:57:00;65.46;41.89;76.22;;
60116;Laerm;62818;49.394;8.686;2023-07-20T02:58:01;64.53;42.09;75.87;;
60116;Laerm;62818;49.394;8.686;2023-07-20T02:59:02;65.93;42.88;75.67;;
60116;Laerm;62818;49.394;8.686;2023-07-20T03:00:04;65.64;42.88;76.90;;
60116;Laerm;62818;49.394;8.686;2023-07-20T03:01:06;64.98;42.53;76.05;;
60116;Laerm;62818;49.394;8.686;2023-07-20T03:02:07;64.99;42.59;76.27;;
60116;Laerm;62818;49.394;8.686;2023-07-20T03:03:10;65.61;42.53;75.42;;
60116;Laerm;62818;49.394;8.686;2023-07-20T03:04:10;64.89;41.82;76.38;;
60116;Laerm;62818;49.394;8.686;2023-07-20T03:05:11;65.13;41.96;76.87;;
60116;Laerm;62818;49.394;8.686;2023-07-20T03:06:12;64.91;42.03;76.18;;
60116;Laerm;62818;49.394;8.686;2023-07-20T03:07:13;48.19;41.68;67.49;;
60116;Laerm;62818;49.394;8.686;2023-07-20T03:08:13;65.69;41.96;73.27;;
60116;Laerm;62818;49.394;8.686;2023-07-20T03:09:14;65.73;41.96;73.35;;
60116;Laerm;62818;49.394;8.686;2023-07-20T03:10:15;66.29;42.09;73.49;;
60116;Laerm;62818;49.394;8.686;2023-07-20T03:11:16;65.67;41.68;73.22;;
60116;Laerm;62818;49.394;8.686;2023-07-20T03:12:17;65.96;41.89;73.21;;
60116;Laerm;62818;49.394;8.686;2023-07-20T03:13:18;65.71;42.29;72.92;;
60116;Laerm;62818;49.394;8.686;2023-07-20T03:14:18;65.53;42.53;72.89;;
60116;Laerm;62818;49.394;8.686;2023-07-20T03:15:19;65.41;41.22;73.21;;
60116;Laerm;62818;49.394;8.686;2023-07-20T03:16:19;65.53;41.68;72.79;;
60116;Laerm;62818;49.394;8.686;2023-07-20T03:17:20;65.54;41.82;73.61;;
60116;Laerm;62818;49.394;8.686;2023-07-20T03:18:20;65.58;41.22;72.55;;
60116;Laerm;62818;49.394;8.686;2023-07-20T03:19:21;65.80;41.38;73.36;;
60116;Laerm;62818;49.394;8.686;2023-07-20T03:20:21;66.35;42.82;73.56;;
60116;Laerm;62818;49.394;8.686;2023-07-20T03:21:22;66.66;42.41;73.87;;
60116;Laerm;62818;49.394;8.686;2023-07-20T03:22:22;65.88;41.61;73.43;;
60116;Laerm;62818;49.394;8.686;2023-07-20T03:23:24;66.06;40.71;72.65;;
60116;Laerm;62818;49.394;8.686;2023-07-20T03:24:26;65.91;42.09;72.79;;
60116;Laerm;62818;49.394;8.686;2023-07-20T03:25:27;66.38;42.03;73.77;;
60116;Laerm;62818;49.394;8.686;2023-07-20T03:26:28;66.12;44.39;73.61;;
60116;Laerm;62818;49.394;8.686;2023-07-20T03:27:28;65.78;42.76;73.03;;
60116;Laerm;62818;49.394;8.686;2023-07-20T03:28:29;65.68;41.68;73.07;;
60116;Laerm;62818;49.394;8.686;2023-07-20T03:29:32;65.66;41.68;72.56;;
60116;Laerm;62818;49.394;8.686;2023-07-20T03:30:34;66.45;41.53;75.23;;
60116;Laerm;62818;49.394;8.686;2023-07-20T03:31:34;65.57;42.47;72.38;;
60116;Laerm;62818;49.394;8.686;2023-07-20T03:32:35;65.59;42.47;73.66;;
60116;Laerm;62818;49.394;8.686;2023-07-20T03:33:36;65.76;41.46;73.06;;
60116;Laerm;62818;49.394;8.686;2023-07-20T03:34:37;65.80;41.82;73.89;;
60116;Laerm;62818;49.394;8.686;2023-07-20T03:35:37;65.90;42.29;73.84;;
60116;Laerm;62818;49.394;8.686;2023-07-20T03:36:38;66.24;42.88;74.26;;
60116;Laerm;62818;49.394;8.686;2023-07-20T03:37:38;66.26;43.19;74.92;;
60116;Laerm;62818;49.394;8.686;2023-07-20T03:38:39;66.00;42.03;73.14;;
60116;Laerm;62818;49.394;8.686;2023-07-20T03:39:39;65.97;43.14;73.92;;
60116;Laerm;62818;49.394;8.686;2023-07-20T03:40:56;65.96;43.63;75.32;;
60116;Laerm;62818;49.394;8.686;2023-07-20T03:41:58;65.57;42.47;73.01;;
60116;Laerm;62818;49.394;8.686;2023-07-20T03:42:59;66.41;43.14;74.61;;
60116;Laerm;62818;49.394;8.686;2023-07-20T03:44:00;66.90;43.90;74.75;;
60116;Laerm;62818;49.394;8.686;2023-07-20T03:45:00;66.84;42.98;75.06;;
60116;Laerm;62818;49.394;8.686;2023-07-20T03:46:01;66.93;43.58;75.11;;
60116;Laerm;62818;49.394;8.686;2023-07-20T03:47:01;67.47;43.60;74.85;;
60116;Laerm;62818;49.394;8.686;2023-07-20T03:48:03;67.06;43.51;74.86;;
60116;Laerm;62818;49.394;8.686;2023-07-20T03:49:04;66.19;43.34;73.17;;
60116;Laerm;62818;49.394;8.686;2023-07-20T03:50:06;67.25;44.43;74.63;;
60116;Laerm;62818;49.394;8.686;2023-07-20T03:51:07;67.48;45.23;74.65;;
60116;Laerm;62818;49.394;8.686;2023-07-20T03:52:08;67.19;43.44;74.80;;
60116;Laerm;62818;49.394;8.686;2023-07-20T03:53:08;66.06;42.16;73.48;;
60116;Laerm;62818;49.394;8.686;2023-07-20T03:54:08;66.01;43.68;73.08;;
60116;Laerm;62818;49.394;8.686;2023-07-20T03:55:10;65.86;42.98;73.01;;
60116;Laerm;62818;49.394;8.686;2023-07-20T03:56:10;66.74;43.00;74.75;;
60116;Laerm;62818;49.394;8.686;2023-07-20T03:57:11;66.79;42.76;74.52;;
60116;Laerm;62818;49.394;8.686;2023-07-20T03:58:12;66.00;44.19;73.07;;
60116;Laerm;62818;49.394;8.686;2023-07-20T03:59:13;66.47;45.14;73.81;;
60116;Laerm;62818;49.394;8.686;2023-07-20T04:00:14;66.74;43.58;74.85;;
60116;Laerm;62818;49.394;8.686;2023-07-20T04:01:16;67.20;42.76;74.69;;
60116;Laerm;62818;49.394;8.686;2023-07-20T04:02:17;66.53;44.62;74.26;;
60116;Laerm;62818;49.394;8.686;2023-07-20T04:03:20;65.25;44.27;72.81;;
60116;Laerm;62818;49.394;8.686;2023-07-20T04:04:23;66.13;47.20;73.60;;
60116;Laerm;62818;49.394;8.686;2023-07-20T04:05:23;65.88;44.65;73.29;;
60116;Laerm;62818;49.394;8.686;2023-07-20T04:06:24;66.35;43.34;74.35;;
60116;Laerm;62818;49.394;8.686;2023-07-20T04:07:24;66.15;42.82;74.10;;
60116;Laerm;62818;49.394;8.686;2023-07-20T04:08:24;65.46;42.88;72.21;;
60116;Laerm;62818;49.394;8.686;2023-07-20T04:09:25;65.87;43.24;73.44;;
60116;Laerm;62818;49.394;8.686;2023-07-20T04:10:25;65.74;42.29;73.46;;
60116;Laerm;62818;49.394;8.686;2023-07-20T04:11:26;66.41;44.54;73.95;;
60116;Laerm;62818;49.394;8.686;2023-07-20T04:12:26;65.58;42.74;73.04;;
60116;Laerm;62818;49.394;8.686;2023-07-20T04:13:27;65.88;42.35;73.83;;
60116;Laerm;62818;49.394;8.686;2023-07-20T04:14:28;66.55;43.63;74.16;;
60116;Laerm;62818;49.394;8.686;2023-07-20T04:15:29;66.40;43.24;75.19;;
60116;Laerm;62818;49.394;8.686;2023-07-20T04:16:29;65.73;42.35;73.76;;
60116;Laerm;62818;49.394;8.686;2023-07-20T04:17:30;66.77;44.51;74.45;;
60116;Laerm;62818;49.394;8.686;2023-07-20T04:18:30;67.35;44.90;75.48;;
60116;Laerm;62818;49.394;8.686;2023-07-20T04:19:31;65.62;42.82;73.20;;
60116;Laerm;62818;49.394;8.686;2023-07-20T04:20:31;66.61;43.44;74.36;;
60116;Laerm;62818;49.394;8.686;2023-07-20T04:21:32;66.81;43.49;74.47;;
60116;Laerm;62818;49.394;8.686;2023-07-20T04:22:32;66.73;42.65;74.37;;
60116;Laerm;62818;49.394;8.686;2023-07-20T04:23:33;66.35;44.31;74.21;;
60116;Laerm;62818;49.394;8.686;2023-07-20T04:24:33;66.60;44.27;74.43;;
60116;Laerm;62818;49.394;8.686;2023-07-20T04:25:34;66.17;44.27;74.38;;
60116;Laerm;62818;49.394;8.686;2023-07-20T04:26:39;66.79;45.33;74.80;;
60116;Laerm;62818;49.394;8.686;2023-07-20T04:27:39;66.61;45.23;74.30;;
60116;Laerm;62818;49.394;8.686;2023-07-20T04:28:42;65.64;44.94;73.25;;
60116;Laerm;62818;49.394;8.686;2023-07-20T04:29:43;66.99;44.87;74.12;;
60116;Laerm;62818;49.394;8.686;2023-07-20T04:30:44;67.12;46.76;74.19;;
60116;Laerm;62818;49.394;8.686;2023-07-20T04:31:44;65.99;44.72;74.48;;
60116;Laerm;62818;49.394;8.686;2023-07-20T04:32:45;66.08;44.69;73.99;;
60116;Laerm;62818;49.394;8.686;2023-07-20T04:33:46;65.89;46.76;73.26;;
60116;Laerm;62818;49.394;8.686;2023-07-20T04:34:47;66.02;44.54;74.12;;
60116;Laerm;62818;49.394;8.686;2023-07-20T04:35:53;66.16;45.23;73.85;;
60116;Laerm;62818;49.394;8.686;2023-07-20T04:36:54;66.73;46.62;73.78;;
60116;Laerm;62818;49.394;8.686;2023-07-20T04:37:54;66.61;46.62;74.68;;
60116;Laerm;62818;49.394;8.686;2023-07-20T04:38:55;66.31;44.19;74.75;;
60116;Laerm;62818;49.394;8.686;2023-07-20T04:39:55;66.75;46.07;74.08;;
60116;Laerm;62818;49.394;8.686;2023-07-20T04:40:56;66.74;46.10;74.77;;
60116;Laerm;62818;49.394;8.686;2023-07-20T04:41:57;66.71;48.16;74.38;;
60116;Laerm;62818;49.394;8.686;2023-07-20T04:42:58;66.91;46.69;74.49;;
60116;Laerm;62818;49.394;8.686;2023-07-20T04:43:58;66.81;45.66;74.73;;
60116;Laerm;62818;49.394;8.686;2023-07-20T04:44:59;66.82;44.43;74.84;;
60116;Laerm;62818;49.394;8.686;2023-07-20T04:45:59;66.49;45.30;74.14;;
60116;Laerm;62818;49.394;8.686;2023-07-20T04:47:00;65.98;46.45;73.78;;
60116;Laerm;62818;49.394;8.686;2023-07-20T04:48:00;66.40;44.90;74.11;;
60116;Laerm;62818;49.394;8.686;2023-07-20T04:49:01;65.90;47.08;73.17;;
60116;Laerm;62818;49.394;8.686;2023-07-20T04:50:02;66.00;45.42;73.89;;
60116;Laerm;62818;49.394;8.686;2023-07-20T04:51:03;65.44;44.72;72.62;;
60116;Laerm;62818;49.394;8.686;2023-07-20T04:52:04;66.55;45.69;73.82;;
60116;Laerm;62818;49.394;8.686;2023-07-20T04:53:04;67.23;45.69;74.64;;
60116;Laerm;62818;49.394;8.686;2023-07-20T04:54:05;66.76;53.02;73.75;;
60116;Laerm;62818;49.394;8.686;2023-07-20T04:55:06;66.43;47.63;73.68;;
60116;Laerm;62818;49.394;8.686;2023-07-20T04:56:06;65.62;47.50;73.16;;
60116;Laerm;62818;49.394;8.686;2023-07-20T04:57:11;70.31;45.83;84.71;;
60116;Laerm;62818;49.394;8.686;2023-07-20T04:58:12;66.52;46.02;73.69;;
60116;Laerm;62818;49.394;8.686;2023-07-20T04:59:13;65.77;45.36;72.71;;
60116;Laerm;62818;49.394;8.686;2023-07-20T05:00:13;64.35;46.23;72.26;;
60116;Laerm;62818;49.394;8.686;2023-07-20T05:01:14;65.66;46.66;73.08;;
60116;Laerm;62818;49.394;8.686;2023-07-20T05:02:15;66.43;47.02;73.95;;
60116;Laerm;62818;49.394;8.686;2023-07-20T05:03:15;66.54;44.83;74.02;;
60116;Laerm;62818;49.394;8.686;2023-07-20T05:04:16;66.18;44.31;73.68;;
60116;Laerm;62818;49.394;8.686;2023-07-20T05:05:16;66.19;46.95;73.59;;
60116;Laerm;62818;49.394;8.686;2023-07-20T05:06:17;67.03;45.69;74.74;;
60116;Laerm;62818;49.394;8.686;2023-07-20T05:07:17;66.59;46.22;73.64;;
60116;Laerm;62818;49.394;8.686;2023-07-20T05:08:18;65.46;50.94;72.23;;
60116;Laerm;62818;49.394;8.686;2023-07-20T05:09:18;65.93;44.65;73.43;;
60116;Laerm;62818;49.394;8.686;2023-07-20T05:10:19;65.83;43.86;73.34;;
60116;Laerm;62818;49.394;8.686;2023-07-20T05:11:20;66.63;49.33;74.73;;
60116;Laerm;62818;49.394;8.686;2023-07-20T05:12:20;65.37;46.18;73.65;;
60116;Laerm;62818;49.394;8.686;2023-07-20T05:13:21;65.90;45.11;73.53;;
60116;Laerm;62818;49.394;8.686;2023-07-20T05:14:21;66.57;51.95;73.63;;
60116;Laerm;62818;49.394;8.686;2023-07-20T05:15:22;65.03;45.23;72.97;;
60116;Laerm;62818;49.394;8.686;2023-07-20T05:16:22;64.63;44.15;72.14;;
60116;Laerm;62818;49.394;8.686;2023-07-20T05:17:22;65.59;53.05;72.82;;
60116;Laerm;62818;49.394;8.686;2023-07-20T05:18:23;65.31;45.57;72.54;;
60116;Laerm;62818;49.394;8.686;2023-07-20T05:19:25;66.22;45.83;74.37;;
60116;Laerm;62818;49.394;8.686;2023-07-20T05:20:26;66.89;48.25;74.15;;
60116;Laerm;62818;49.394;8.686;2023-07-20T05:21:26;66.39;47.86;73.93;;
60116;Laerm;62818;49.394;8.686;2023-07-20T05:22:27;66.31;45.69;73.82;;
60116;Laerm;62818;49.394;8.686;2023-07-20T05:23:27;65.88;52.63;72.78;;
60116;Laerm;62818;49.394;8.686;2023-07-20T05:24:28;66.38;48.34;74.11;;
60116;Laerm;62818;49.394;8.686;2023-07-20T05:25:28;65.45;45.94;72.90;;
60116;Laerm;62818;49.394;8.686;2023-07-20T05:26:29;65.87;45.86;74.17;;
60116;Laerm;62818;49.394;8.686;2023-07-20T05:27:29;66.24;46.57;73.52;;
60116;Laerm;62818;49.394;8.686;2023-07-20T05:28:30;65.82;45.60;73.40;;
60116;Laerm;62818;49.394;8.686;2023-07-20T05:29:30;64.64;52.67;71.47;;
60116;Laerm;62818;49.394;8.686;2023-07-20T05:30:32;64.15;43.81;71.46;;
60116;Laerm;62818;49.394;8.686;2023-07-20T05:31:32;64.06;43.09;71.89;;
60116;Laerm;62818;49.394;8.686;2023-07-20T05:32:33;64.09;46.76;71.28;;
60116;Laerm;62818;49.394;8.686;2023-07-20T05:33:34;63.82;44.97;71.42;;
60116;Laerm;62818;49.394;8.686;2023-07-20T05:34:35;63.63;45.07;71.11;;
60116;Laerm;62818;49.394;8.686;2023-07-20T05:35:36;64.11;48.43;72.93;;
60116;Laerm;62818;49.394;8.686;2023-07-20T05:36:37;64.16;44.52;71.26;;
60116;Laerm;62818;49.394;8.686;2023-07-20T05:37:38;63.65;45.89;71.23;;
60116;Laerm;62818;49.394;8.686;2023-07-20T05:38:38;63.96;43.81;71.32;;
60116;Laerm;62818;49.394;8.686;2023-07-20T05:39:39;63.91;44.87;71.09;;
60116;Laerm;62818;49.394;8.686;2023-07-20T05:40:44;64.29;45.14;73.53;;
60116;Laerm;62818;49.394;8.686;2023-07-20T05:41:45;63.35;43.24;70.99;;
60116;Laerm;62818;49.394;8.686;2023-07-20T05:42:45;63.42;48.39;70.83;;
60116;Laerm;62818;49.394;8.686;2023-07-20T05:43:46;63.14;43.77;70.99;;
60116;Laerm;62818;49.394;8.686;2023-07-20T05:44:47;63.40;47.34;70.72;;
60116;Laerm;62818;49.394;8.686;2023-07-20T05:45:48;63.96;50.46;70.76;;
60116;Laerm;62818;49.394;8.686;2023-07-20T05:46:49;63.47;43.86;71.34;;
60116;Laerm;62818;49.394;8.686;2023-07-20T05:47:49;63.07;44.72;73.64;;
60116;Laerm;62818;49.394;8.686;2023-07-20T05:48:49;62.57;48.77;69.54;;
60116;Laerm;62818;49.394;8.686;2023-07-20T05:49:50;61.88;45.14;70.01;;
60116;Laerm;62818;49.394;8.686;2023-07-20T05:50:50;62.82;46.93;70.37;;
60116;Laerm;62818;49.394;8.686;2023-07-20T05:51:51;62.53;47.93;69.41;;
60116;Laerm;62818;49.394;8.686;2023-07-20T05:52:54;61.33;44.31;69.41;;